sensor_id;sensor_type;location;lat;lon;timestamp;P1;durP1;ratioP1;P2;durP2;ratioP2
58109;SDS011;58943;50.168;4.410;2023-10-31T00:01:30;4.80;;;3.03;;
58109;SDS011;58943;50.168;4.410;2023-10-31T00:03:56;5.05;;;3.00;;
58109;SDS011;58943;50.168;4.410;2023-10-31T00:06:23;4.32;;;2.47;;
58109;SDS011;58943;50.168;4.410;2023-10-31T00:08:49;4.20;;;2.63;;
58109;SDS011;58943;50.168;4.410;2023-10-31T00:11:16;4.72;;;2.90;;
58109;SDS011;58943;50.168;4.410;2023-10-31T00:13:42;4.65;;;2.80;;
58109;SDS011;58943;50.168;4.410;2023-10-31T00:16:09;3.67;;;2.20;;
58109;SDS011;58943;50.168;4.410;2023-10-31T00:18:35;4.13;;;2.30;;
58109;SDS011;58943;50.168;4.410;2023-10-31T00:21:01;3.38;;;2.58;;
58109;SDS011;58943;50.168;4.410;2023-10-31T00:23:28;2.63;;;2.00;;
58109;SDS011;58943;50.168;4.410;2023-10-31T00:25:54;3.28;;;1.73;;
58109;SDS011;58943;50.168;4.410;2023-10-31T00:28:21;3.20;;;2.00;;
58109;SDS011;58943;50.168;4.410;2023-10-31T00:30:47;2.42;;;1.77;;
58109;SDS011;58943;50.168;4.410;2023-10-31T00:33:14;2.88;;;1.90;;
58109;SDS011;58943;50.168;4.410;2023-10-31T00:35:40;3.20;;;1.80;;
58109;SDS011;58943;50.168;4.410;2023-10-31T00:38:06;2.55;;;1.50;;
58109;SDS011;58943;50.168;4.410;2023-10-31T00:40:33;4.00;;;1.45;;
58109;SDS011;58943;50.168;4.410;2023-10-31T00:42:59;2.20;;;1.75;;
58109;SDS011;58943;50.168;4.410;2023-10-31T00:45:26;3.35;;;1.60;;
58109;SDS011;58943;50.168;4.410;2023-10-31T00:47:52;3.47;;;1.70;;
58109;SDS011;58943;50.168;4.410;2023-10-31T00:50:18;2.00;;;1.55;;
58109;SDS011;58943;50.168;4.410;2023-10-31T00:52:44;2.42;;;1.33;;
58109;SDS011;58943;50.168;4.410;2023-10-31T00:55:11;1.67;;;1.40;;
58109;SDS011;58943;50.168;4.410;2023-10-31T00:57:37;2.97;;;1.42;;
58109;SDS011;58943;50.168;4.410;2023-10-31T01:00:04;2.13;;;1.20;;
58109;SDS011;58943;50.168;4.410;2023-10-31T01:02:30;3.53;;;1.35;;
58109;SDS011;58943;50.168;4.410;2023-10-31T01:04:57;3.00;;;1.40;;
58109;SDS011;58943;50.168;4.410;2023-10-31T01:07:23;3.08;;;2.33;;
58109;SDS011;58943;50.168;4.410;2023-10-31T01:09:49;2.10;;;1.15;;
58109;SDS011;58943;50.168;4.410;2023-10-31T01:12:19;2.45;;;1.08;;
58109;SDS011;58943;50.168;4.410;2023-10-31T01:14:45;2.10;;;1.13;;
58109;SDS011;58943;50.168;4.410;2023-10-31T01:17:12;1.45;;;1.00;;
58109;SDS011;58943;50.168;4.410;2023-10-31T01:19:38;2.72;;;1.02;;
58109;SDS011;58943;50.168;4.410;2023-10-31T01:22:04;2.40;;;1.20;;
58109;SDS011;58943;50.168;4.410;2023-10-31T01:24:32;4.05;;;1.20;;
58109;SDS011;58943;50.168;4.410;2023-10-31T01:26:58;1.52;;;1.00;;
58109;SDS011;58943;50.168;4.410;2023-10-31T01:29:25;1.73;;;1.00;;
58109;SDS011;58943;50.168;4.410;2023-10-31T01:31:51;1.90;;;0.90;;
58109;SDS011;58943;50.168;4.410;2023-10-31T01:34:18;2.47;;;1.00;;
58109;SDS011;58943;50.168;4.410;2023-10-31T01:36:44;2.40;;;1.00;;
58109;SDS011;58943;50.168;4.410;2023-10-31T01:39:10;2.20;;;1.02;;
58109;SDS011;58943;50.168;4.410;2023-10-31T01:41:37;2.50;;;1.10;;
58109;SDS011;58943;50.168;4.410;2023-10-31T01:44:03;1.88;;;1.20;;
58109;SDS011;58943;50.168;4.410;2023-10-31T01:46:29;1.10;;;0.90;;
58109;SDS011;58943;50.168;4.410;2023-10-31T01:48:56;1.67;;;1.17;;
58109;SDS011;58943;50.168;4.410;2023-10-31T01:51:22;1.80;;;1.00;;
58109;SDS011;58943;50.168;4.410;2023-10-31T01:53:49;1.58;;;1.00;;
58109;SDS011;58943;50.168;4.410;2023-10-31T01:56:15;1.42;;;1.30;;
58109;SDS011;58943;50.168;4.410;2023-10-31T01:58:41;1.27;;;0.95;;
58109;SDS011;58943;50.168;4.410;2023-10-31T02:01:08;1.83;;;1.15;;
58109;SDS011;58943;50.168;4.410;2023-10-31T02:03:35;1.65;;;1.05;;
58109;SDS011;58943;50.168;4.410;2023-10-31T02:06:02;2.17;;;1.10;;
58109;SDS011;58943;50.168;4.410;2023-10-31T02:08:28;2.42;;;1.35;;
58109;SDS011;58943;50.168;4.410;2023-10-31T02:10:54;1.63;;;1.30;;
58109;SDS011;58943;50.168;4.410;2023-10-31T02:13:20;1.45;;;1.08;;
58109;SDS011;58943;50.168;4.410;2023-10-31T02:15:47;2.42;;;1.30;;
58109;SDS011;58943;50.168;4.410;2023-10-31T02:18:13;2.53;;;1.20;;
58109;SDS011;58943;50.168;4.410;2023-10-31T02:20:40;2.28;;;1.30;;
58109;SDS011;58943;50.168;4.410;2023-10-31T02:23:06;1.70;;;1.33;;
58109;SDS011;58943;50.168;4.410;2023-10-31T02:25:33;1.88;;;1.10;;
58109;SDS011;58943;50.168;4.410;2023-10-31T02:27:59;1.60;;;1.20;;
58109;SDS011;58943;50.168;4.410;2023-10-31T02:30:26;3.78;;;1.77;;
58109;SDS011;58943;50.168;4.410;2023-10-31T02:32:52;2.90;;;1.23;;
58109;SDS011;58943;50.168;4.410;2023-10-31T02:35:19;1.85;;;1.35;;
58109;SDS011;58943;50.168;4.410;2023-10-31T02:37:46;1.83;;;1.50;;
58109;SDS011;58943;50.168;4.410;2023-10-31T02:40:12;2.20;;;1.30;;
58109;SDS011;58943;50.168;4.410;2023-10-31T02:42:39;2.35;;;1.60;;
58109;SDS011;58943;50.168;4.410;2023-10-31T02:45:06;2.55;;;1.60;;
58109;SDS011;58943;50.168;4.410;2023-10-31T02:47:33;2.33;;;1.45;;
58109;SDS011;58943;50.168;4.410;2023-10-31T02:49:59;1.95;;;1.55;;
58109;SDS011;58943;50.168;4.410;2023-10-31T02:52:25;1.70;;;1.60;;
58109;SDS011;58943;50.168;4.410;2023-10-31T02:54:52;2.03;;;1.33;;
58109;SDS011;58943;50.168;4.410;2023-10-31T02:57:19;1.85;;;1.25;;
58109;SDS011;58943;50.168;4.410;2023-10-31T02:59:45;1.60;;;1.50;;
58109;SDS011;58943;50.168;4.410;2023-10-31T03:02:11;3.15;;;1.55;;
58109;SDS011;58943;50.168;4.410;2023-10-31T03:04:38;2.25;;;1.70;;
58109;SDS011;58943;50.168;4.410;2023-10-31T03:07:04;1.92;;;1.63;;
58109;SDS011;58943;50.168;4.410;2023-10-31T03:09:30;2.78;;;1.70;;
58109;SDS011;58943;50.168;4.410;2023-10-31T03:11:57;3.30;;;1.55;;
58109;SDS011;58943;50.168;4.410;2023-10-31T03:14:24;2.47;;;1.80;;
58109;SDS011;58943;50.168;4.410;2023-10-31T03:16:50;2.30;;;1.55;;
58109;SDS011;58943;50.168;4.410;2023-10-31T03:19:17;2.72;;;1.75;;
58109;SDS011;58943;50.168;4.410;2023-10-31T03:21:43;2.00;;;1.70;;
58109;SDS011;58943;50.168;4.410;2023-10-31T03:24:09;1.70;;;1.45;;
58109;SDS011;58943;50.168;4.410;2023-10-31T03:26:36;2.17;;;1.42;;
58109;SDS011;58943;50.168;4.410;2023-10-31T03:29:02;3.38;;;1.80;;
58109;SDS011;58943;50.168;4.410;2023-10-31T03:31:28;1.63;;;1.52;;
58109;SDS011;58943;50.168;4.410;2023-10-31T03:33:55;2.83;;;1.90;;
58109;SDS011;58943;50.168;4.410;2023-10-31T03:36:21;1.85;;;1.75;;
58109;SDS011;58943;50.168;4.410;2023-10-31T03:38:48;2.13;;;1.70;;
58109;SDS011;58943;50.168;4.410;2023-10-31T03:41:14;2.20;;;2.00;;
58109;SDS011;58943;50.168;4.410;2023-10-31T03:43:40;2.10;;;1.90;;
58109;SDS011;58943;50.168;4.410;2023-10-31T03:46:07;2.58;;;1.88;;
58109;SDS011;58943;50.168;4.410;2023-10-31T03:48:33;3.05;;;1.85;;
58109;SDS011;58943;50.168;4.410;2023-10-31T03:50:59;2.97;;;1.92;;
58109;SDS011;58943;50.168;4.410;2023-10-31T03:53:26;2.72;;;1.90;;
58109;SDS011;58943;50.168;4.410;2023-10-31T03:55:52;2.00;;;1.90;;
58109;SDS011;58943;50.168;4.410;2023-10-31T03:58:18;2.40;;;2.20;;
58109;SDS011;58943;50.168;4.410;2023-10-31T04:00:45;2.58;;;2.38;;
58109;SDS011;58943;50.168;4.410;2023-10-31T04:03:11;4.95;;;2.17;;
58109;SDS011;58943;50.168;4.410;2023-10-31T04:05:37;2.47;;;2.13;;
58109;SDS011;58943;50.168;4.410;2023-10-31T04:08:04;3.65;;;2.50;;
58109;SDS011;58943;50.168;4.410;2023-10-31T04:10:30;2.42;;;1.90;;
58109;SDS011;58943;50.168;4.410;2023-10-31T04:12:57;3.35;;;2.50;;
58109;SDS011;58943;50.168;4.410;2023-10-31T04:15:23;3.58;;;2.35;;
58109;SDS011;58943;50.168;4.410;2023-10-31T04:17:49;2.30;;;2.10;;
58109;SDS011;58943;50.168;4.410;2023-10-31T04:20:16;2.47;;;2.28;;
58109;SDS011;58943;50.168;4.410;2023-10-31T04:22:42;3.35;;;2.10;;
58109;SDS011;58943;50.168;4.410;2023-10-31T04:25:08;2.38;;;2.17;;
58109;SDS011;58943;50.168;4.410;2023-10-31T04:27:35;2.58;;;2.30;;
58109;SDS011;58943;50.168;4.410;2023-10-31T04:30:01;2.72;;;2.53;;
58109;SDS011;58943;50.168;4.410;2023-10-31T04:32:27;3.42;;;2.28;;
58109;SDS011;58943;50.168;4.410;2023-10-31T04:34:54;2.20;;;2.00;;
58109;SDS011;58943;50.168;4.410;2023-10-31T04:37:21;2.70;;;2.50;;
58109;SDS011;58943;50.168;4.410;2023-10-31T04:39:47;4.97;;;2.63;;
58109;SDS011;58943;50.168;4.410;2023-10-31T04:42:13;5.25;;;2.30;;
58109;SDS011;58943;50.168;4.410;2023-10-31T04:44:40;2.45;;;2.25;;
58109;SDS011;58943;50.168;4.410;2023-10-31T04:47:06;2.85;;;2.58;;
58109;SDS011;58943;50.168;4.410;2023-10-31T04:49:34;2.30;;;1.92;;
58109;SDS011;58943;50.168;4.410;2023-10-31T04:52:01;2.60;;;2.40;;
58109;SDS011;58943;50.168;4.410;2023-10-31T04:54:27;3.00;;;2.45;;
58109;SDS011;58943;50.168;4.410;2023-10-31T04:56:54;2.40;;;2.20;;
58109;SDS011;58943;50.168;4.410;2023-10-31T04:59:20;2.28;;;2.08;;
58109;SDS011;58943;50.168;4.410;2023-10-31T05:01:50;2.83;;;2.22;;
58109;SDS011;58943;50.168;4.410;2023-10-31T05:04:17;3.70;;;2.40;;
58109;SDS011;58943;50.168;4.410;2023-10-31T05:06:43;2.50;;;2.30;;
58109;SDS011;58943;50.168;4.410;2023-10-31T05:09:10;2.58;;;2.28;;
58109;SDS011;58943;50.168;4.410;2023-10-31T05:11:37;2.58;;;2.17;;
58109;SDS011;58943;50.168;4.410;2023-10-31T05:14:03;2.65;;;2.40;;
58109;SDS011;58943;50.168;4.410;2023-10-31T05:16:29;2.60;;;2.40;;
58109;SDS011;58943;50.168;4.410;2023-10-31T05:18:56;2.83;;;2.42;;
58109;SDS011;58943;50.168;4.410;2023-10-31T05:21:25;4.32;;;2.70;;
58109;SDS011;58943;50.168;4.410;2023-10-31T05:23:52;3.13;;;2.70;;
58109;SDS011;58943;50.168;4.410;2023-10-31T05:26:18;2.58;;;2.38;;
58109;SDS011;58943;50.168;4.410;2023-10-31T05:28:45;2.58;;;2.38;;
58109;SDS011;58943;50.168;4.410;2023-10-31T05:31:11;2.85;;;2.40;;
58109;SDS011;58943;50.168;4.410;2023-10-31T05:33:41;2.70;;;2.50;;
58109;SDS011;58943;50.168;4.410;2023-10-31T05:36:17;2.80;;;2.33;;
58109;SDS011;58943;50.168;4.410;2023-10-31T05:38:44;2.80;;;2.30;;
58109;SDS011;58943;50.168;4.410;2023-10-31T05:41:10;3.22;;;2.00;;
58109;SDS011;58943;50.168;4.410;2023-10-31T05:43:37;2.38;;;2.00;;
58109;SDS011;58943;50.168;4.410;2023-10-31T05:46:03;3.55;;;3.25;;
58109;SDS011;58943;50.168;4.410;2023-10-31T05:48:30;2.22;;;2.00;;
58109;SDS011;58943;50.168;4.410;2023-10-31T05:50:57;3.08;;;1.75;;
58109;SDS011;58943;50.168;4.410;2023-10-31T05:53:23;2.40;;;2.00;;
58109;SDS011;58943;50.168;4.410;2023-10-31T05:55:49;2.22;;;2.03;;
58109;SDS011;58943;50.168;4.410;2023-10-31T05:58:16;2.20;;;2.00;;
58109;SDS011;58943;50.168;4.410;2023-10-31T06:00:42;2.55;;;2.03;;
58109;SDS011;58943;50.168;4.410;2023-10-31T06:03:09;3.00;;;1.70;;
58109;SDS011;58943;50.168;4.410;2023-10-31T06:05:35;3.05;;;2.00;;
58109;SDS011;58943;50.168;4.410;2023-10-31T06:08:01;2.03;;;1.83;;
58109;SDS011;58943;50.168;4.410;2023-10-31T06:10:27;3.65;;;2.00;;
58109;SDS011;58943;50.168;4.410;2023-10-31T06:12:54;2.58;;;1.80;;
58109;SDS011;58943;50.168;4.410;2023-10-31T06:15:20;3.38;;;2.08;;
58109;SDS011;58943;50.168;4.410;2023-10-31T06:17:46;2.63;;;2.10;;
58109;SDS011;58943;50.168;4.410;2023-10-31T06:20:13;2.72;;;2.50;;
58109;SDS011;58943;50.168;4.410;2023-10-31T06:22:39;2.85;;;2.30;;
58109;SDS011;58943;50.168;4.410;2023-10-31T06:25:06;3.40;;;2.30;;
58109;SDS011;58943;50.168;4.410;2023-10-31T06:27:32;2.83;;;2.17;;
58109;SDS011;58943;50.168;4.410;2023-10-31T06:29:58;4.03;;;1.90;;
58109;SDS011;58943;50.168;4.410;2023-10-31T06:32:25;3.42;;;1.90;;
58109;SDS011;58943;50.168;4.410;2023-10-31T06:34:51;2.60;;;1.80;;
58109;SDS011;58943;50.168;4.410;2023-10-31T06:37:18;2.33;;;1.70;;
58109;SDS011;58943;50.168;4.410;2023-10-31T06:39:44;2.42;;;1.67;;
58109;SDS011;58943;50.168;4.410;2023-10-31T06:42:10;2.95;;;1.90;;
58109;SDS011;58943;50.168;4.410;2023-10-31T06:44:36;2.30;;;2.00;;
58109;SDS011;58943;50.168;4.410;2023-10-31T06:47:03;2.38;;;1.75;;
58109;SDS011;58943;50.168;4.410;2023-10-31T06:49:29;1.88;;;1.60;;
58109;SDS011;58943;50.168;4.410;2023-10-31T06:51:56;3.00;;;1.50;;
58109;SDS011;58943;50.168;4.410;2023-10-31T06:54:22;3.55;;;2.28;;
58109;SDS011;58943;50.168;4.410;2023-10-31T06:56:48;1.83;;;1.30;;
58109;SDS011;58943;50.168;4.410;2023-10-31T06:59:14;3.85;;;1.85;;
58109;SDS011;58943;50.168;4.410;2023-10-31T07:01:41;4.28;;;2.30;;
58109;SDS011;58943;50.168;4.410;2023-10-31T07:04:08;4.60;;;2.35;;
58109;SDS011;58943;50.168;4.410;2023-10-31T07:06:34;4.13;;;2.50;;
58109;SDS011;58943;50.168;4.410;2023-10-31T07:09:00;4.45;;;3.38;;
58109;SDS011;58943;50.168;4.410;2023-10-31T07:11:30;3.97;;;3.00;;
58109;SDS011;58943;50.168;4.410;2023-10-31T07:14:02;3.80;;;3.05;;
58109;SDS011;58943;50.168;4.410;2023-10-31T07:16:28;4.25;;;3.05;;
58109;SDS011;58943;50.168;4.410;2023-10-31T07:18:55;5.40;;;3.35;;
58109;SDS011;58943;50.168;4.410;2023-10-31T07:21:22;6.03;;;3.58;;
58109;SDS011;58943;50.168;4.410;2023-10-31T07:23:48;6.70;;;3.38;;
58109;SDS011;58943;50.168;4.410;2023-10-31T07:26:14;4.45;;;2.40;;
58109;SDS011;58943;50.168;4.410;2023-10-31T07:28:41;8.20;;;2.78;;
58109;SDS011;58943;50.168;4.410;2023-10-31T07:31:08;2.78;;;2.20;;
58109;SDS011;58943;50.168;4.410;2023-10-31T07:33:34;9.23;;;2.88;;
58109;SDS011;58943;50.168;4.410;2023-10-31T07:36:01;2.65;;;2.03;;
58109;SDS011;58943;50.168;4.410;2023-10-31T07:38:27;4.07;;;2.22;;
58109;SDS011;58943;50.168;4.410;2023-10-31T07:40:54;5.47;;;2.40;;
58109;SDS011;58943;50.168;4.410;2023-10-31T07:43:20;3.75;;;1.95;;
58109;SDS011;58943;50.168;4.410;2023-10-31T07:45:47;2.70;;;1.73;;
58109;SDS011;58943;50.168;4.410;2023-10-31T07:48:13;3.60;;;2.10;;
58109;SDS011;58943;50.168;4.410;2023-10-31T07:50:40;2.90;;;2.05;;
58109;SDS011;58943;50.168;4.410;2023-10-31T07:53:06;2.00;;;1.60;;
58109;SDS011;58943;50.168;4.410;2023-10-31T07:55:33;1.90;;;1.55;;
58109;SDS011;58943;50.168;4.410;2023-10-31T07:57:59;3.38;;;1.60;;
58109;SDS011;58943;50.168;4.410;2023-10-31T08:00:25;2.60;;;1.52;;
58109;SDS011;58943;50.168;4.410;2023-10-31T08:02:52;2.88;;;1.65;;
58109;SDS011;58943;50.168;4.410;2023-10-31T08:05:18;3.55;;;1.40;;
58109;SDS011;58943;50.168;4.410;2023-10-31T08:07:44;2.83;;;1.50;;
58109;SDS011;58943;50.168;4.410;2023-10-31T08:10:10;3.85;;;1.40;;
58109;SDS011;58943;50.168;4.410;2023-10-31T08:12:36;1.30;;;1.05;;
58109;SDS011;58943;50.168;4.410;2023-10-31T08:15:03;1.25;;;1.10;;
58109;SDS011;58943;50.168;4.410;2023-10-31T08:17:29;2.90;;;1.60;;
58109;SDS011;58943;50.168;4.410;2023-10-31T08:19:56;1.92;;;1.15;;
58109;SDS011;58943;50.168;4.410;2023-10-31T08:22:22;2.67;;;1.10;;
58109;SDS011;58943;50.168;4.410;2023-10-31T08:24:49;1.92;;;1.08;;
58109;SDS011;58943;50.168;4.410;2023-10-31T08:27:15;1.20;;;1.02;;
58109;SDS011;58943;50.168;4.410;2023-10-31T08:29:41;5.50;;;1.17;;
58109;SDS011;58943;50.168;4.410;2023-10-31T08:32:08;2.08;;;1.30;;
58109;SDS011;58943;50.168;4.410;2023-10-31T08:34:34;2.38;;;0.90;;
58109;SDS011;58943;50.168;4.410;2023-10-31T08:37:00;2.47;;;1.25;;
58109;SDS011;58943;50.168;4.410;2023-10-31T08:39:27;2.40;;;1.38;;
58109;SDS011;58943;50.168;4.410;2023-10-31T08:41:55;2.45;;;1.00;;
58109;SDS011;58943;50.168;4.410;2023-10-31T08:44:21;3.38;;;1.17;;
58109;SDS011;58943;50.168;4.410;2023-10-31T08:46:47;2.55;;;1.38;;
58109;SDS011;58943;50.168;4.410;2023-10-31T08:49:14;1.55;;;1.10;;
58109;SDS011;58943;50.168;4.410;2023-10-31T08:51:44;1.70;;;1.10;;
58109;SDS011;58943;50.168;4.410;2023-10-31T08:54:10;2.08;;;1.10;;
58109;SDS011;58943;50.168;4.410;2023-10-31T08:56:36;3.15;;;0.95;;
58109;SDS011;58943;50.168;4.410;2023-10-31T08:59:03;2.67;;;0.90;;
58109;SDS011;58943;50.168;4.410;2023-10-31T09:01:30;2.17;;;1.05;;
58109;SDS011;58943;50.168;4.410;2023-10-31T09:03:56;2.92;;;1.25;;
58109;SDS011;58943;50.168;4.410;2023-10-31T09:06:26;1.35;;;1.00;;
58109;SDS011;58943;50.168;4.410;2023-10-31T09:08:52;2.53;;;1.00;;
58109;SDS011;58943;50.168;4.410;2023-10-31T09:11:18;3.70;;;1.30;;
58109;SDS011;58943;50.168;4.410;2023-10-31T09:13:45;2.63;;;0.80;;
58109;SDS011;58943;50.168;4.410;2023-10-31T09:16:11;2.60;;;1.00;;
58109;SDS011;58943;50.168;4.410;2023-10-31T09:18:38;2.33;;;0.90;;
58109;SDS011;58943;50.168;4.410;2023-10-31T09:21:05;2.88;;;1.10;;
58109;SDS011;58943;50.168;4.410;2023-10-31T09:23:31;3.72;;;1.00;;
58109;SDS011;58943;50.168;4.410;2023-10-31T09:25:58;2.95;;;1.00;;
58109;SDS011;58943;50.168;4.410;2023-10-31T09:28:25;2.20;;;1.08;;
58109;SDS011;58943;50.168;4.410;2023-10-31T09:30:51;3.08;;;1.10;;
58109;SDS011;58943;50.168;4.410;2023-10-31T09:33:17;2.30;;;0.80;;
58109;SDS011;58943;50.168;4.410;2023-10-31T09:35:44;3.33;;;0.95;;
58109;SDS011;58943;50.168;4.410;2023-10-31T09:38:10;3.47;;;1.05;;
58109;SDS011;58943;50.168;4.410;2023-10-31T09:40:38;4.18;;;1.00;;
58109;SDS011;58943;50.168;4.410;2023-10-31T09:43:04;3.67;;;1.08;;
58109;SDS011;58943;50.168;4.410;2023-10-31T09:45:31;3.00;;;1.10;;
58109;SDS011;58943;50.168;4.410;2023-10-31T09:47:58;3.45;;;1.00;;
58109;SDS011;58943;50.168;4.410;2023-10-31T09:50:25;3.42;;;1.10;;
58109;SDS011;58943;50.168;4.410;2023-10-31T09:52:52;1.65;;;0.85;;
58109;SDS011;58943;50.168;4.410;2023-10-31T09:55:18;1.85;;;1.20;;
58109;SDS011;58943;50.168;4.410;2023-10-31T09:57:45;3.42;;;1.25;;
58109;SDS011;58943;50.168;4.410;2023-10-31T10:00:12;1.85;;;1.13;;
58109;SDS011;58943;50.168;4.410;2023-10-31T10:02:38;2.47;;;1.20;;
58109;SDS011;58943;50.168;4.410;2023-10-31T10:05:05;4.40;;;1.20;;
58109;SDS011;58943;50.168;4.410;2023-10-31T10:07:33;3.05;;;1.00;;
58109;SDS011;58943;50.168;4.410;2023-10-31T10:10:01;2.70;;;1.00;;
58109;SDS011;58943;50.168;4.410;2023-10-31T10:12:27;2.78;;;1.00;;
58109;SDS011;58943;50.168;4.410;2023-10-31T10:14:54;2.35;;;0.90;;
58109;SDS011;58943;50.168;4.410;2023-10-31T10:17:21;2.22;;;0.90;;
58109;SDS011;58943;50.168;4.410;2023-10-31T10:19:47;3.80;;;1.10;;
58109;SDS011;58943;50.168;4.410;2023-10-31T10:22:14;2.83;;;1.30;;
58109;SDS011;58943;50.168;4.410;2023-10-31T10:24:41;1.73;;;1.00;;
58109;SDS011;58943;50.168;4.410;2023-10-31T10:27:08;3.90;;;1.15;;
58109;SDS011;58943;50.168;4.410;2023-10-31T10:29:35;3.80;;;1.25;;
58109;SDS011;58943;50.168;4.410;2023-10-31T10:32:04;3.50;;;1.00;;
58109;SDS011;58943;50.168;4.410;2023-10-31T10:34:33;2.20;;;0.90;;
58109;SDS011;58943;50.168;4.410;2023-10-31T10:37:00;2.17;;;1.20;;
58109;SDS011;58943;50.168;4.410;2023-10-31T10:39:27;3.25;;;1.42;;
58109;SDS011;58943;50.168;4.410;2023-10-31T10:41:56;3.08;;;1.10;;
58109;SDS011;58943;50.168;4.410;2023-10-31T10:44:34;2.92;;;1.40;;
58109;SDS011;58943;50.168;4.410;2023-10-31T10:47:04;2.42;;;1.10;;
58109;SDS011;58943;50.168;4.410;2023-10-31T10:49:35;3.90;;;1.33;;
58109;SDS011;58943;50.168;4.410;2023-10-31T10:52:14;3.63;;;1.25;;
58109;SDS011;58943;50.168;4.410;2023-10-31T10:59:42;2.25;;;1.10;;
58109;SDS011;58943;50.168;4.410;2023-10-31T11:02:08;1.80;;;1.10;;
58109;SDS011;58943;50.168;4.410;2023-10-31T11:04:36;2.72;;;1.48;;
58109;SDS011;58943;50.168;4.410;2023-10-31T11:07:03;2.58;;;1.20;;
58109;SDS011;58943;50.168;4.410;2023-10-31T11:09:30;4.68;;;1.40;;
58109;SDS011;58943;50.168;4.410;2023-10-31T11:11:57;5.05;;;1.80;;
58109;SDS011;58943;50.168;4.410;2023-10-31T11:14:24;3.40;;;1.27;;
58109;SDS011;58943;50.168;4.410;2023-10-31T11:16:52;2.88;;;1.33;;
58109;SDS011;58943;50.168;4.410;2023-10-31T11:19:18;3.65;;;1.23;;
58109;SDS011;58943;50.168;4.410;2023-10-31T11:24:21;4.68;;;1.08;;
58109;SDS011;58943;50.168;4.410;2023-10-31T11:26:52;3.40;;;1.33;;
58109;SDS011;58943;50.168;4.410;2023-10-31T11:29:19;3.30;;;1.50;;
58109;SDS011;58943;50.168;4.410;2023-10-31T11:31:46;4.57;;;1.50;;
58109;SDS011;58943;50.168;4.410;2023-10-31T11:34:15;3.53;;;1.27;;
58109;SDS011;58943;50.168;4.410;2023-10-31T11:36:41;6.10;;;1.37;;
58109;SDS011;58943;50.168;4.410;2023-10-31T11:39:14;4.70;;;1.50;;
58109;SDS011;58943;50.168;4.410;2023-10-31T11:41:48;2.60;;;1.60;;
58109;SDS011;58943;50.168;4.410;2023-10-31T11:44:18;2.70;;;1.10;;
58109;SDS011;58943;50.168;4.410;2023-10-31T11:46:47;2.50;;;1.17;;
58109;SDS011;58943;50.168;4.410;2023-10-31T11:49:17;3.83;;;1.30;;
58109;SDS011;58943;50.168;4.410;2023-10-31T11:51:44;4.55;;;1.48;;
58109;SDS011;58943;50.168;4.410;2023-10-31T11:54:13;4.00;;;1.33;;
58109;SDS011;58943;50.168;4.410;2023-10-31T11:56:39;2.80;;;1.20;;
58109;SDS011;58943;50.168;4.410;2023-10-31T11:59:06;2.55;;;1.20;;
58109;SDS011;58943;50.168;4.410;2023-10-31T12:01:32;3.10;;;1.23;;
58109;SDS011;58943;50.168;4.410;2023-10-31T12:03:59;2.65;;;1.13;;
58109;SDS011;58943;50.168;4.410;2023-10-31T12:06:26;3.10;;;1.38;;
58109;SDS011;58943;50.168;4.410;2023-10-31T12:08:52;2.42;;;1.10;;
58109;SDS011;58943;50.168;4.410;2023-10-31T12:11:19;2.00;;;1.10;;
58109;SDS011;58943;50.168;4.410;2023-10-31T12:13:59;2.97;;;1.07;;
58109;SDS011;58943;50.168;4.410;2023-10-31T12:16:30;4.50;;;1.20;;
58109;SDS011;58943;50.168;4.410;2023-10-31T12:19:03;2.47;;;1.45;;
58109;SDS011;58943;50.168;4.410;2023-10-31T12:21:35;2.50;;;1.10;;
58109;SDS011;58943;50.168;4.410;2023-10-31T12:24:05;3.03;;;1.20;;
58109;SDS011;58943;50.168;4.410;2023-10-31T12:26:34;2.08;;;1.00;;
58109;SDS011;58943;50.168;4.410;2023-10-31T12:29:17;2.72;;;1.00;;
58109;SDS011;58943;50.168;4.410;2023-10-31T12:34:16;2.78;;;0.82;;
58109;SDS011;58943;50.168;4.410;2023-10-31T12:36:43;2.65;;;0.90;;
58109;SDS011;58943;50.168;4.410;2023-10-31T12:39:10;1.30;;;0.93;;
58109;SDS011;58943;50.168;4.410;2023-10-31T12:41:38;1.67;;;0.90;;
58109;SDS011;58943;50.168;4.410;2023-10-31T12:44:05;2.10;;;0.90;;
58109;SDS011;58943;50.168;4.410;2023-10-31T12:46:33;2.53;;;1.00;;
58109;SDS011;58943;50.168;4.410;2023-10-31T12:49:00;1.55;;;0.93;;
58109;SDS011;58943;50.168;4.410;2023-10-31T12:51:27;2.38;;;0.90;;
58109;SDS011;58943;50.168;4.410;2023-10-31T12:53:53;3.88;;;1.00;;
58109;SDS011;58943;50.168;4.410;2023-10-31T12:59:08;2.08;;;0.93;;
58109;SDS011;58943;50.168;4.410;2023-10-31T13:01:35;1.23;;;0.70;;
58109;SDS011;58943;50.168;4.410;2023-10-31T13:04:02;1.65;;;0.82;;
58109;SDS011;58943;50.168;4.410;2023-10-31T13:06:29;1.13;;;0.93;;
58109;SDS011;58943;50.168;4.410;2023-10-31T13:08:58;1.83;;;0.90;;
58109;SDS011;58943;50.168;4.410;2023-10-31T13:11:28;2.90;;;0.93;;
58109;SDS011;58943;50.168;4.410;2023-10-31T13:13:55;2.88;;;1.00;;
58109;SDS011;58943;50.168;4.410;2023-10-31T13:16:21;2.38;;;1.05;;
58109;SDS011;58943;50.168;4.410;2023-10-31T13:18:48;1.02;;;0.80;;
58109;SDS011;58943;50.168;4.410;2023-10-31T13:21:14;1.98;;;0.90;;
58109;SDS011;58943;50.168;4.410;2023-10-31T13:23:43;2.42;;;1.10;;
58109;SDS011;58943;50.168;4.410;2023-10-31T13:26:14;2.23;;;1.00;;
58109;SDS011;58943;50.168;4.410;2023-10-31T13:28:40;2.22;;;0.93;;
58109;SDS011;58943;50.168;4.410;2023-10-31T13:31:07;2.75;;;0.93;;
58109;SDS011;58943;50.168;4.410;2023-10-31T13:33:36;5.43;;;1.02;;
58109;SDS011;58943;50.168;4.410;2023-10-31T13:36:02;1.38;;;0.70;;
58109;SDS011;58943;50.168;4.410;2023-10-31T13:38:29;1.70;;;0.80;;
58109;SDS011;58943;50.168;4.410;2023-10-31T13:40:55;1.73;;;0.73;;
58109;SDS011;58943;50.168;4.410;2023-10-31T13:43:22;1.25;;;0.65;;
58109;SDS011;58943;50.168;4.410;2023-10-31T13:45:49;1.35;;;0.90;;
58109;SDS011;58943;50.168;4.410;2023-10-31T13:48:15;2.30;;;0.90;;
58109;SDS011;58943;50.168;4.410;2023-10-31T13:50:44;2.15;;;0.95;;
58109;SDS011;58943;50.168;4.410;2023-10-31T13:53:11;1.42;;;0.70;;
58109;SDS011;58943;50.168;4.410;2023-10-31T13:55:38;1.23;;;0.77;;
58109;SDS011;58943;50.168;4.410;2023-10-31T13:58:04;1.67;;;0.70;;
58109;SDS011;58943;50.168;4.410;2023-10-31T14:00:30;2.10;;;0.77;;
58109;SDS011;58943;50.168;4.410;2023-10-31T14:02:58;0.90;;;0.70;;
58109;SDS011;58943;50.168;4.410;2023-10-31T14:05:24;1.48;;;0.90;;
58109;SDS011;58943;50.168;4.410;2023-10-31T14:07:51;1.25;;;0.70;;
58109;SDS011;58943;50.168;4.410;2023-10-31T14:10:17;1.17;;;0.70;;
58109;SDS011;58943;50.168;4.410;2023-10-31T14:12:47;1.00;;;0.73;;
58109;SDS011;58943;50.168;4.410;2023-10-31T14:17:40;1.67;;;0.55;;
58109;SDS011;58943;50.168;4.410;2023-10-31T14:20:06;1.13;;;0.80;;
58109;SDS011;58943;50.168;4.410;2023-10-31T14:22:33;1.05;;;0.60;;
58109;SDS011;58943;50.168;4.410;2023-10-31T14:25:00;1.85;;;0.70;;
58109;SDS011;58943;50.168;4.410;2023-10-31T14:27:29;1.00;;;0.60;;
58109;SDS011;58943;50.168;4.410;2023-10-31T14:29:56;2.58;;;0.80;;
58109;SDS011;58943;50.168;4.410;2023-10-31T14:32:22;1.10;;;0.88;;
58109;SDS011;58943;50.168;4.410;2023-10-31T14:34:48;1.25;;;0.60;;
58109;SDS011;58943;50.168;4.410;2023-10-31T14:37:14;2.10;;;0.80;;
58109;SDS011;58943;50.168;4.410;2023-10-31T14:39:41;0.85;;;0.60;;
58109;SDS011;58943;50.168;4.410;2023-10-31T14:42:08;1.48;;;0.70;;
58109;SDS011;58943;50.168;4.410;2023-10-31T14:44:34;2.03;;;0.90;;
58109;SDS011;58943;50.168;4.410;2023-10-31T14:47:01;1.50;;;0.80;;
58109;SDS011;58943;50.168;4.410;2023-10-31T14:49:27;1.33;;;0.70;;
58109;SDS011;58943;50.168;4.410;2023-10-31T14:51:53;1.30;;;0.65;;
58109;SDS011;58943;50.168;4.410;2023-10-31T14:54:20;2.00;;;0.63;;
58109;SDS011;58943;50.168;4.410;2023-10-31T14:56:46;2.53;;;1.20;;
58109;SDS011;58943;50.168;4.410;2023-10-31T14:59:13;1.52;;;0.75;;
58109;SDS011;58943;50.168;4.410;2023-10-31T15:01:39;1.75;;;0.80;;